sensor_id;sensor_type;location;lat;lon;timestamp;pressure;altitude;pressure_sealevel;temperature;humidity
2549;BME280;1284;53.520;10.248;2023-11-21T00:01:02;100263.94;;;11.52;100.00
2549;BME280;1284;53.520;10.248;2023-11-21T00:03:29;100260.44;;;11.52;100.00
2549;BME280;1284;53.520;10.248;2023-11-21T00:05:55;100265.50;;;11.53;100.00
2549;BME280;1284;53.520;10.248;2023-11-21T00:08:20;100267.38;;;11.49;100.00
2549;BME280;1284;53.520;10.248;2023-11-21T00:10:49;100277.16;;;11.64;100.00
2549;BME280;1284;53.520;10.248;2023-11-21T00:13:14;100281.47;;;11.69;100.00
2549;BME280;1284;53.520;10.248;2023-11-21T00:15:39;100277.22;;;11.68;100.00
2549;BME280;1284;53.520;10.248;2023-11-21T00:18:06;100284.81;;;11.59;100.00
2549;BME280;1284;53.520;10.248;2023-11-21T00:20:31;100273.75;;;11.67;100.00
2549;BME280;1284;53.520;10.248;2023-11-21T00:22:57;100285.22;;;11.61;100.00
2549;BME280;1284;53.520;10.248;2023-11-21T00:25:25;100287.72;;;11.43;100.00
2549;BME280;1284;53.520;10.248;2023-11-21T00:27:51;100296.88;;;11.35;100.00
2549;BME280;1284;53.520;10.248;2023-11-21T00:30:16;100289.34;;;11.15;100.00
2549;BME280;1284;53.520;10.248;2023-11-21T00:32:42;100292.25;;;11.03;100.00
2549;BME280;1284;53.520;10.248;2023-11-21T00:35:08;100298.25;;;11.19;100.00
2549;BME280;1284;53.520;10.248;2023-11-21T00:37:34;100287.28;;;11.05;100.00
2549;BME280;1284;53.520;10.248;2023-11-21T00:39:59;100279.59;;;10.77;100.00
2549;BME280;1284;53.520;10.248;2023-11-21T00:42:25;100294.56;;;10.74;100.00
2549;BME280;1284;53.520;10.248;2023-11-21T00:44:50;100302.41;;;10.83;100.00
2549;BME280;1284;53.520;10.248;2023-11-21T00:47:16;100309.22;;;10.77;100.00
2549;BME280;1284;53.520;10.248;2023-11-21T00:49:41;100309.66;;;10.79;100.00
2549;BME280;1284;53.520;10.248;2023-11-21T00:52:08;100320.28;;;10.98;100.00
2549;BME280;1284;53.520;10.248;2023-11-21T00:54:33;100312.63;;;11.00;100.00
2549;BME280;1284;53.520;10.248;2023-11-21T00:56:59;100323.97;;;10.86;100.00
2549;BME280;1284;53.520;10.248;2023-11-21T00:59:24;100330.19;;;10.90;100.00
2549;BME280;1284;53.520;10.248;2023-11-21T01:01:50;100327.13;;;10.92;100.00
2549;BME280;1284;53.520;10.248;2023-11-21T01:04:15;100339.72;;;10.84;100.00
2549;BME280;1284;53.520;10.248;2023-11-21T01:06:41;100344.63;;;10.75;100.00
2549;BME280;1284;53.520;10.248;2023-11-21T01:09:08;100357.97;;;10.68;100.00
2549;BME280;1284;53.520;10.248;2023-11-21T01:11:36;100354.56;;;10.71;100.00
2549;BME280;1284;53.520;10.248;2023-11-21T01:14:03;100358.50;;;10.77;100.00
2549;BME280;1284;53.520;10.248;2023-11-21T01:16:30;100369.00;;;10.86;100.00
2549;BME280;1284;53.520;10.248;2023-11-21T01:18:58;100370.34;;;10.47;100.00
2549;BME280;1284;53.520;10.248;2023-11-21T01:21:24;100371.84;;;10.70;100.00
2549;BME280;1284;53.520;10.248;2023-11-21T01:23:50;100372.44;;;10.83;99.34
2549;BME280;1284;53.520;10.248;2023-11-21T01:26:15;100385.53;;;10.84;98.48
2549;BME280;1284;53.520;10.248;2023-11-21T01:28:41;100388.50;;;10.76;99.02
2549;BME280;1284;53.520;10.248;2023-11-21T01:31:06;100385.66;;;10.69;99.54
2549;BME280;1284;53.520;10.248;2023-11-21T01:33:32;100380.00;;;10.51;99.53
2549;BME280;1284;53.520;10.248;2023-11-21T01:35:58;100382.69;;;10.51;98.51
2549;BME280;1284;53.520;10.248;2023-11-21T01:38:25;100383.25;;;10.38;98.75
2549;BME280;1284;53.520;10.248;2023-11-21T01:40:51;100388.44;;;10.50;98.36
2549;BME280;1284;53.520;10.248;2023-11-21T01:43:17;100397.50;;;10.38;98.59
2549;BME280;1284;53.520;10.248;2023-11-21T01:45:43;100394.56;;;10.24;98.23
2549;BME280;1284;53.520;10.248;2023-11-21T01:48:10;100401.03;;;10.42;98.04
2549;BME280;1284;53.520;10.248;2023-11-21T01:50:41;100389.28;;;10.54;97.26
2549;BME280;1284;53.520;10.248;2023-11-21T01:53:07;100401.34;;;10.37;97.59
2549;BME280;1284;53.520;10.248;2023-11-21T01:55:34;100401.06;;;10.46;97.56
2549;BME280;1284;53.520;10.248;2023-11-21T01:58:00;100395.81;;;10.53;95.93
2549;BME280;1284;53.520;10.248;2023-11-21T02:00:26;100400.81;;;10.32;96.15
2549;BME280;1284;53.520;10.248;2023-11-21T02:02:54;100401.34;;;10.18;97.19
2549;BME280;1284;53.520;10.248;2023-11-21T02:05:20;100402.50;;;10.40;96.48
2549;BME280;1284;53.520;10.248;2023-11-21T02:07:47;100409.75;;;10.36;96.95
2549;BME280;1284;53.520;10.248;2023-11-21T02:10:14;100416.28;;;10.35;96.17
2549;BME280;1284;53.520;10.248;2023-11-21T02:12:44;100423.72;;;10.41;95.67
2549;BME280;1284;53.520;10.248;2023-11-21T02:15:13;100424.00;;;10.36;94.31
2549;BME280;1284;53.520;10.248;2023-11-21T02:17:46;100429.63;;;10.28;95.88
2549;BME280;1284;53.520;10.248;2023-11-21T02:20:17;100431.59;;;10.31;95.90
2549;BME280;1284;53.520;10.248;2023-11-21T02:22:51;100438.03;;;10.26;96.26
2549;BME280;1284;53.520;10.248;2023-11-21T02:25:30;100436.53;;;10.29;95.45
2549;BME280;1284;53.520;10.248;2023-11-21T02:28:01;100443.41;;;10.26;95.56
2549;BME280;1284;53.520;10.248;2023-11-21T02:30:29;100445.81;;;10.31;95.91
2549;BME280;1284;53.520;10.248;2023-11-21T02:32:58;100440.66;;;10.45;95.27
2549;BME280;1284;53.520;10.248;2023-11-21T02:35:25;100447.56;;;10.43;94.55
2549;BME280;1284;53.520;10.248;2023-11-21T02:37:53;100454.22;;;10.49;94.64
2549;BME280;1284;53.520;10.248;2023-11-21T02:40:19;100456.22;;;10.55;94.74
2549;BME280;1284;53.520;10.248;2023-11-21T02:42:50;100454.66;;;10.32;94.08
2549;BME280;1284;53.520;10.248;2023-11-21T02:45:19;100463.59;;;10.17;94.31
2549;BME280;1284;53.520;10.248;2023-11-21T02:47:46;100466.03;;;10.22;95.51
2549;BME280;1284;53.520;10.248;2023-11-21T02:50:12;100476.34;;;10.39;94.23
2549;BME280;1284;53.520;10.248;2023-11-21T02:52:38;100479.25;;;10.30;94.90
2549;BME280;1284;53.520;10.248;2023-11-21T02:55:06;100481.25;;;10.33;95.28
2549;BME280;1284;53.520;10.248;2023-11-21T02:57:32;100478.06;;;10.28;93.86
2549;BME280;1284;53.520;10.248;2023-11-21T02:59:59;100480.41;;;10.29;93.94
2549;BME280;1284;53.520;10.248;2023-11-21T03:02:25;100476.84;;;10.25;94.72
2549;BME280;1284;53.520;10.248;2023-11-21T03:04:51;100484.69;;;10.34;94.54
2549;BME280;1284;53.520;10.248;2023-11-21T03:07:17;100489.66;;;10.32;94.20
2549;BME280;1284;53.520;10.248;2023-11-21T03:09:45;100475.09;;;10.14;94.12
2549;BME280;1284;53.520;10.248;2023-11-21T03:12:11;100477.06;;;10.17;94.37
2549;BME280;1284;53.520;10.248;2023-11-21T03:14:38;100473.81;;;10.27;94.28
2549;BME280;1284;53.520;10.248;2023-11-21T03:17:06;100480.13;;;10.15;94.38
2549;BME280;1284;53.520;10.248;2023-11-21T03:19:32;100483.59;;;10.16;94.21
2549;BME280;1284;53.520;10.248;2023-11-21T03:21:57;100483.59;;;10.16;94.37
2549;BME280;1284;53.520;10.248;2023-11-21T03:24:24;100483.09;;;10.10;93.61
2549;BME280;1284;53.520;10.248;2023-11-21T03:26:50;100491.59;;;10.12;94.47
2549;BME280;1284;53.520;10.248;2023-11-21T03:29:17;100485.06;;;10.13;94.34
2549;BME280;1284;53.520;10.248;2023-11-21T03:31:42;100494.91;;;10.06;93.63
2549;BME280;1284;53.520;10.248;2023-11-21T03:34:14;100504.00;;;9.82;94.71
2549;BME280;1284;53.520;10.248;2023-11-21T03:36:40;100499.84;;;10.03;94.32
2549;BME280;1284;53.520;10.248;2023-11-21T03:39:05;100509.28;;;10.13;93.93
2549;BME280;1284;53.520;10.248;2023-11-21T03:41:31;100530.28;;;10.08;94.25
2549;BME280;1284;53.520;10.248;2023-11-21T03:44:02;100535.50;;;10.16;94.30
2549;BME280;1284;53.520;10.248;2023-11-21T03:46:28;100535.09;;;10.14;93.73
2549;BME280;1284;53.520;10.248;2023-11-21T03:48:54;100543.72;;;10.23;93.85
2549;BME280;1284;53.520;10.248;2023-11-21T03:51:22;100549.22;;;10.30;93.86
2549;BME280;1284;53.520;10.248;2023-11-21T03:53:47;100556.88;;;10.28;93.37
2549;BME280;1284;53.520;10.248;2023-11-21T03:56:14;100555.75;;;10.29;93.32
2549;BME280;1284;53.520;10.248;2023-11-21T03:58:42;100555.47;;;10.15;94.06
2549;BME280;1284;53.520;10.248;2023-11-21T04:01:07;100560.53;;;10.20;93.60
2549;BME280;1284;53.520;10.248;2023-11-21T04:03:33;100563.34;;;10.24;92.88
2549;BME280;1284;53.520;10.248;2023-11-21T04:05:58;100568.97;;;10.19;93.07
2549;BME280;1284;53.520;10.248;2023-11-21T04:08:24;100575.94;;;10.20;93.27
2549;BME280;1284;53.520;10.248;2023-11-21T04:10:54;100568.47;;;10.32;93.27
2549;BME280;1284;53.520;10.248;2023-11-21T04:13:20;100581.50;;;10.30;93.14
2549;BME280;1284;53.520;10.248;2023-11-21T04:15:48;100586.34;;;10.40;92.81
2549;BME280;1284;53.520;10.248;2023-11-21T04:18:14;100586.28;;;10.37;92.64
2549;BME280;1284;53.520;10.248;2023-11-21T04:20:39;100595.47;;;10.36;92.81
2549;BME280;1284;53.520;10.248;2023-11-21T04:23:07;100592.28;;;10.30;92.57
2549;BME280;1284;53.520;10.248;2023-11-21T04:25:35;100601.63;;;10.17;93.45
2549;BME280;1284;53.520;10.248;2023-11-21T04:28:00;100600.91;;;10.20;93.61
2549;BME280;1284;53.520;10.248;2023-11-21T04:30:26;100602.47;;;10.21;93.01
2549;BME280;1284;53.520;10.248;2023-11-21T04:33:00;100611.06;;;10.27;92.91
2549;BME280;1284;53.520;10.248;2023-11-21T04:35:25;100612.47;;;10.21;92.46
2549;BME280;1284;53.520;10.248;2023-11-21T04:37:51;100617.91;;;10.24;92.69
2549;BME280;1284;53.520;10.248;2023-11-21T04:40:17;100622.59;;;10.27;93.11
2549;BME280;1284;53.520;10.248;2023-11-21T04:42:42;100630.25;;;10.25;92.07
2549;BME280;1284;53.520;10.248;2023-11-21T04:45:08;100631.47;;;10.28;92.80
2549;BME280;1284;53.520;10.248;2023-11-21T04:47:35;100632.50;;;10.23;92.88
2549;BME280;1284;53.520;10.248;2023-11-21T04:50:02;100635.06;;;10.16;93.19
2549;BME280;1284;53.520;10.248;2023-11-21T04:52:28;100636.25;;;10.19;93.37
2549;BME280;1284;53.520;10.248;2023-11-21T04:54:53;100642.06;;;10.21;92.29
2549;BME280;1284;53.520;10.248;2023-11-21T04:57:20;100647.09;;;10.07;92.92
2549;BME280;1284;53.520;10.248;2023-11-21T04:59:48;100643.03;;;10.13;92.72
2549;BME280;1284;53.520;10.248;2023-11-21T05:02:14;100635.91;;;10.20;92.52
2549;BME280;1284;53.520;10.248;2023-11-21T05:04:39;100639.91;;;10.11;92.47
2549;BME280;1284;53.520;10.248;2023-11-21T05:07:04;100639.22;;;10.14;92.57
2549;BME280;1284;53.520;10.248;2023-11-21T05:09:30;100641.28;;;10.20;93.13
2549;BME280;1284;53.520;10.248;2023-11-21T05:11:57;100646.66;;;10.20;92.70
2549;BME280;1284;53.520;10.248;2023-11-21T05:14:23;100658.63;;;10.23;92.61
2549;BME280;1284;53.520;10.248;2023-11-21T05:16:48;100663.66;;;10.24;92.07
2549;BME280;1284;53.520;10.248;2023-11-21T05:19:16;100664.66;;;10.16;92.08
2549;BME280;1284;53.520;10.248;2023-11-21T05:21:41;100668.41;;;10.12;92.72
2549;BME280;1284;53.520;10.248;2023-11-21T05:24:07;100674.22;;;10.14;92.39
2549;BME280;1284;53.520;10.248;2023-11-21T05:26:32;100670.66;;;10.10;93.03
2549;BME280;1284;53.520;10.248;2023-11-21T05:28:58;100681.75;;;10.08;92.98
2549;BME280;1284;53.520;10.248;2023-11-21T05:31:23;100680.97;;;10.08;93.20
2549;BME280;1284;53.520;10.248;2023-11-21T05:33:48;100674.63;;;10.16;92.50
2549;BME280;1284;53.520;10.248;2023-11-21T05:36:14;100683.91;;;10.18;92.18
2549;BME280;1284;53.520;10.248;2023-11-21T05:38:39;100686.59;;;10.18;92.56
2549;BME280;1284;53.520;10.248;2023-11-21T05:41:05;100697.78;;;10.20;93.02
2549;BME280;1284;53.520;10.248;2023-11-21T05:43:30;100691.16;;;10.14;92.20
2549;BME280;1284;53.520;10.248;2023-11-21T05:45:57;100703.38;;;10.12;92.42
2549;BME280;1284;53.520;10.248;2023-11-21T05:48:26;100702.94;;;10.10;92.38
2549;BME280;1284;53.520;10.248;2023-11-21T05:50:52;100709.41;;;10.09;92.73
2549;BME280;1284;53.520;10.248;2023-11-21T05:53:18;100705.19;;;10.08;92.17
2549;BME280;1284;53.520;10.248;2023-11-21T05:55:43;100703.38;;;10.12;92.33
2549;BME280;1284;53.520;10.248;2023-11-21T05:58:08;100716.47;;;10.13;92.56
2549;BME280;1284;53.520;10.248;2023-11-21T06:00:34;100719.59;;;10.15;92.22
2549;BME280;1284;53.520;10.248;2023-11-21T06:03:01;100724.91;;;10.12;92.73
2549;BME280;1284;53.520;10.248;2023-11-21T06:05:27;100731.28;;;10.07;92.05
2549;BME280;1284;53.520;10.248;2023-11-21T06:07:54;100734.41;;;10.09;92.03
2549;BME280;1284;53.520;10.248;2023-11-21T06:10:22;100730.50;;;10.07;92.06
2549;BME280;1284;53.520;10.248;2023-11-21T06:12:49;100744.09;;;10.10;91.72
2549;BME280;1284;53.520;10.248;2023-11-21T06:15:14;100754.16;;;10.13;92.29
2549;BME280;1284;53.520;10.248;2023-11-21T06:17:41;100754.16;;;10.13;92.41
2549;BME280;1284;53.520;10.248;2023-11-21T06:20:08;100756.03;;;10.13;92.48
2549;BME280;1284;53.520;10.248;2023-11-21T06:22:36;100763.94;;;10.06;92.52
2549;BME280;1284;53.520;10.248;2023-11-21T06:25:01;100773.13;;;10.04;92.51
2549;BME280;1284;53.520;10.248;2023-11-21T06:27:28;100766.91;;;10.00;92.85
2549;BME280;1284;53.520;10.248;2023-11-21T06:29:54;100769.91;;;9.99;92.85
2549;BME280;1284;53.520;10.248;2023-11-21T06:32:22;100777.91;;;9.95;93.15
2549;BME280;1284;53.520;10.248;2023-11-21T06:34:48;100782.84;;;10.09;92.98
2549;BME280;1284;53.520;10.248;2023-11-21T06:37:15;100784.31;;;10.07;92.75
2549;BME280;1284;53.520;10.248;2023-11-21T06:39:40;100787.63;;;10.00;92.79
2549;BME280;1284;53.520;10.248;2023-11-21T06:42:07;100791.34;;;9.95;93.04
2549;BME280;1284;53.520;10.248;2023-11-21T06:44:35;100798.75;;;9.98;93.00
2549;BME280;1284;53.520;10.248;2023-11-21T06:47:02;100795.44;;;10.05;93.33
2549;BME280;1284;53.520;10.248;2023-11-21T06:49:28;100798.56;;;10.07;93.15
2549;BME280;1284;53.520;10.248;2023-11-21T06:51:53;100798.78;;;10.14;92.83
2549;BME280;1284;53.520;10.248;2023-11-21T06:54:20;100798.06;;;10.17;93.03
2549;BME280;1284;53.520;10.248;2023-11-21T06:56:49;100807.53;;;10.11;92.73
2549;BME280;1284;53.520;10.248;2023-11-21T06:59:15;100810.56;;;10.10;93.33
2549;BME280;1284;53.520;10.248;2023-11-21T07:01:43;100817.31;;;10.03;93.61
2549;BME280;1284;53.520;10.248;2023-11-21T07:04:09;100818.44;;;10.02;93.70
2549;BME280;1284;53.520;10.248;2023-11-21T07:06:35;100821.22;;;10.06;93.10
2549;BME280;1284;53.520;10.248;2023-11-21T07:09:00;100818.72;;;10.13;92.79
2549;BME280;1284;53.520;10.248;2023-11-21T07:11:27;100821.41;;;10.13;93.27
2549;BME280;1284;53.520;10.248;2023-11-21T07:13:52;100825.69;;;10.14;93.33
2549;BME280;1284;53.520;10.248;2023-11-21T07:16:18;100839.34;;;10.09;92.82
2549;BME280;1284;53.520;10.248;2023-11-21T07:18:44;100845.19;;;10.11;93.13
2549;BME280;1284;53.520;10.248;2023-11-21T07:21:14;100856.97;;;10.07;92.77
2549;BME280;1284;53.520;10.248;2023-11-21T07:23:41;100853.34;;;10.15;92.90
2549;BME280;1284;53.520;10.248;2023-11-21T07:26:08;100859.97;;;10.17;93.00
2549;BME280;1284;53.520;10.248;2023-11-21T07:28:35;100858.53;;;10.08;92.93
2549;BME280;1284;53.520;10.248;2023-11-21T07:31:01;100872.00;;;10.08;94.02
2549;BME280;1284;53.520;10.248;2023-11-21T07:33:27;100885.09;;;10.09;93.72
2549;BME280;1284;53.520;10.248;2023-11-21T07:35:52;100877.91;;;10.13;93.87
2549;BME280;1284;53.520;10.248;2023-11-21T07:38:18;100886.44;;;10.15;93.68
2549;BME280;1284;53.520;10.248;2023-11-21T07:40:43;100887.56;;;10.14;93.40
2549;BME280;1284;53.520;10.248;2023-11-21T07:43:09;100890.28;;;10.14;93.71
2549;BME280;1284;53.520;10.248;2023-11-21T07:45:36;100896.09;;;10.16;93.73
2549;BME280;1284;53.520;10.248;2023-11-21T07:48:01;100884.97;;;10.18;93.25
2549;BME280;1284;53.520;10.248;2023-11-21T07:50:28;100894.41;;;10.12;93.34
2549;BME280;1284;53.520;10.248;2023-11-21T07:52:54;100899.38;;;10.10;93.79
2549;BME280;1284;53.520;10.248;2023-11-21T07:55:20;100904.25;;;9.92;93.35
2549;BME280;1284;53.520;10.248;2023-11-21T07:57:46;100907.38;;;9.94;94.01
2549;BME280;1284;53.520;10.248;2023-11-21T08:00:12;100905.78;;;9.93;94.41
2549;BME280;1284;53.520;10.248;2023-11-21T08:02:39;100909.81;;;9.99;94.33
2549;BME280;1284;53.520;10.248;2023-11-21T08:05:08;100908.78;;;10.03;93.99
2549;BME280;1284;53.520;10.248;2023-11-21T08:07:33;100914.25;;;10.07;93.66
2549;BME280;1284;53.520;10.248;2023-11-21T08:09:59;100914.25;;;10.07;94.29
2549;BME280;1284;53.520;10.248;2023-11-21T08:12:24;100922.31;;;10.07;93.83
2549;BME280;1284;53.520;10.248;2023-11-21T08:14:51;100927.97;;;10.02;94.17
2549;BME280;1284;53.520;10.248;2023-11-21T08:17:16;100928.25;;;10.13;93.59
2549;BME280;1284;53.520;10.248;2023-11-21T08:19:42;100927.94;;;10.14;93.26
2549;BME280;1284;53.520;10.248;2023-11-21T08:22:07;100932.44;;;10.10;92.86
2549;BME280;1284;53.520;10.248;2023-11-21T08:24:33;100934.59;;;10.20;93.24
2549;BME280;1284;53.520;10.248;2023-11-21T08:26:59;100936.84;;;10.18;92.23
2549;BME280;1284;53.520;10.248;2023-11-21T08:29:24;100931.75;;;10.13;92.68
2549;BME280;1284;53.520;10.248;2023-11-21T08:31:49;100942.84;;;10.12;92.74
2549;BME280;1284;53.520;10.248;2023-11-21T08:34:15;100945.72;;;10.19;92.21
2549;BME280;1284;53.520;10.248;2023-11-21T08:36:42;100954.22;;;10.21;91.61
2549;BME280;1284;53.520;10.248;2023-11-21T08:39:08;100957.97;;;10.16;92.13
2549;BME280;1284;53.520;10.248;2023-11-21T08:41:34;100956.75;;;10.14;92.41
2549;BME280;1284;53.520;10.248;2023-11-21T08:44:00;100961.78;;;10.15;91.56
2549;BME280;1284;53.520;10.248;2023-11-21T08:46:28;100960.84;;;10.23;92.66
2549;BME280;1284;53.520;10.248;2023-11-21T08:48:53;100969.00;;;10.27;91.71
2549;BME280;1284;53.520;10.248;2023-11-21T08:51:19;100976.81;;;10.32;91.14
2549;BME280;1284;53.520;10.248;2023-11-21T08:53:44;100980.56;;;10.27;91.54
2549;BME280;1284;53.520;10.248;2023-11-21T08:56:13;100988.38;;;10.32;91.06
2549;BME280;1284;53.520;10.248;2023-11-21T08:58:42;100984.50;;;10.30;90.42
2549;BME280;1284;53.520;10.248;2023-11-21T09:01:07;100988.28;;;10.29;91.24
2549;BME280;1284;53.520;10.248;2023-11-21T09:03:32;100991.50;;;10.34;91.22
2549;BME280;1284;53.520;10.248;2023-11-21T09:05:59;100995.09;;;10.38;90.71
2549;BME280;1284;53.520;10.248;2023-11-21T09:08:25;100995.63;;;10.44;90.75
2549;BME280;1284;53.520;10.248;2023-11-21T09:10:50;101006.72;;;10.42;90.14
2549;BME280;1284;53.520;10.248;2023-11-21T09:13:17;101006.03;;;10.45;90.66
2549;BME280;1284;53.520;10.248;2023-11-21T09:15:43;101019.50;;;10.45;90.48
2549;BME280;1284;53.520;10.248;2023-11-21T09:18:14;101022.81;;;10.54;90.38
2549;BME280;1284;53.520;10.248;2023-11-21T09:20:41;101022.19;;;10.45;89.66
2549;BME280;1284;53.520;10.248;2023-11-21T09:23:07;101030.25;;;10.45;90.63
2549;BME280;1284;53.520;10.248;2023-11-21T09:25:32;101027.91;;;10.44;90.55
2549;BME280;1284;53.520;10.248;2023-11-21T09:27:58;101029.16;;;10.46;90.18
2549;BME280;1284;53.520;10.248;2023-11-21T09:30:23;101033.16;;;10.52;89.98
2549;BME280;1284;53.520;10.248;2023-11-21T09:32:50;101045.66;;;10.45;89.68
2549;BME280;1284;53.520;10.248;2023-11-21T09:35:16;101041.25;;;10.52;89.42
2549;BME280;1284;53.520;10.248;2023-11-21T09:37:45;101049.56;;;10.47;89.39
2549;BME280;1284;53.520;10.248;2023-11-21T09:40:11;101054.50;;;10.45;88.75
2549;BME280;1284;53.520;10.248;2023-11-21T09:43:05;101057.84;;;10.54;89.33
2549;BME280;1284;53.520;10.248;2023-11-21T09:45:35;101060.13;;;10.68;88.29
2549;BME280;1284;53.520;10.248;2023-11-21T09:48:07;101059.47;;;10.59;87.79
2549;BME280;1284;53.520;10.248;2023-11-21T09:50:35;101056.03;;;10.58;88.04
2549;BME280;1284;53.520;10.248;2023-11-21T09:55:36;101069.41;;;10.55;87.99
2549;BME280;1284;53.520;10.248;2023-11-21T09:58:06;101075.41;;;10.64;87.42
2549;BME280;1284;53.520;10.248;2023-11-21T10:00:37;101082.59;;;10.60;86.88
2549;BME280;1284;53.520;10.248;2023-11-21T10:03:04;101089.72;;;10.52;86.76
2549;BME280;1284;53.520;10.248;2023-11-21T10:05:29;101086.19;;;10.64;86.70
2549;BME280;1284;53.520;10.248;2023-11-21T10:07:56;101097.91;;;10.71;86.68
2549;BME280;1284;53.520;10.248;2023-11-21T10:10:23;101083.22;;;10.69;86.58
2549;BME280;1284;53.520;10.248;2023-11-21T10:12:51;101094.97;;;10.76;86.16
2549;BME280;1284;53.520;10.248;2023-11-21T10:15:24;101098.97;;;10.82;87.16
2549;BME280;1284;53.520;10.248;2023-11-21T10:17:53;101107.31;;;10.77;86.58
2549;BME280;1284;53.520;10.248;2023-11-21T10:20:25;101102.50;;;10.71;85.97
2549;BME280;1284;53.520;10.248;2023-11-21T10:22:51;101102.81;;;10.81;86.43
2549;BME280;1284;53.520;10.248;2023-11-21T10:25:16;101095.69;;;10.89;86.28
2549;BME280;1284;53.520;10.248;2023-11-21T10:27:47;101085.94;;;10.84;86.31
2549;BME280;1284;53.520;10.248;2023-11-21T10:30:17;101089.88;;;10.87;86.27
2549;BME280;1284;53.520;10.248;2023-11-21T10:32:43;101096.56;;;10.93;86.06
2549;BME280;1284;53.520;10.248;2023-11-21T10:35:09;101096.81;;;10.88;86.03
2549;BME280;1284;53.520;10.248;2023-11-21T10:37:40;101091.84;;;10.90;86.17
2549;BME280;1284;53.520;10.248;2023-11-21T10:40:10;101099.28;;;10.93;86.22
2549;BME280;1284;53.520;10.248;2023-11-21T10:42:39;101109.25;;;10.93;85.91
2549;BME280;1284;53.520;10.248;2023-11-21T10:45:06;101107.97;;;11.02;86.00
2549;BME280;1284;53.520;10.248;2023-11-21T10:47:41;101111.44;;;11.03;85.30
2549;BME280;1284;53.520;10.248;2023-11-21T10:50:10;101112.31;;;11.07;85.27
2549;BME280;1284;53.520;10.248;2023-11-21T10:52:40;101123.69;;;11.00;84.14
2549;BME280;1284;53.520;10.248;2023-11-21T10:55:19;101120.84;;;11.09;84.17
2549;BME280;1284;53.520;10.248;2023-11-21T10:57:52;101122.22;;;11.03;84.14
2549;BME280;1284;53.520;10.248;2023-11-21T11:00:19;101121.44;;;11.02;84.59
2549;BME280;1284;53.520;10.248;2023-11-21T11:02:52;101114.50;;;11.01;83.61
2549;BME280;1284;53.520;10.248;2023-11-21T11:05:22;101119.88;;;11.01;83.61
2549;BME280;1284;53.520;10.248;2023-11-21T11:07:58;101116.50;;;11.04;84.60
2549;BME280;1284;53.520;10.248;2023-11-21T11:10:28;101125.50;;;10.96;84.00
2549;BME280;1284;53.520;10.248;2023-11-21T11:12:55;101122.22;;;11.03;83.43
2549;BME280;1284;53.520;10.248;2023-11-21T11:15:23;101128.84;;;11.05;83.08
2549;BME280;1284;53.520;10.248;2023-11-21T11:17:48;101134.03;;;10.98;83.05
2549;BME280;1284;53.520;10.248;2023-11-21T11:20:15;101136.63;;;10.95;83.83
2549;BME280;1284;53.520;10.248;2023-11-21T11:23:04;101139.91;;;10.88;84.06
2549;BME280;1284;53.520;10.248;2023-11-21T11:28:05;101151.25;;;11.09;83.42
2549;BME280;1284;53.520;10.248;2023-11-21T11:38:23;101143.53;;;11.08;83.81
2549;BME280;1284;53.520;10.248;2023-11-21T11:40:53;101139.63;;;11.05;83.95
2549;BME280;1284;53.520;10.248;2023-11-21T11:43:26;101147.38;;;11.07;83.20
2549;BME280;1284;53.520;10.248;2023-11-21T11:45:55;101156.31;;;11.11;82.94
2549;BME280;1284;53.520;10.248;2023-11-21T11:48:22;101147.38;;;11.07;82.62
2549;BME280;1284;53.520;10.248;2023-11-21T11:51:04;101158.06;;;11.03;83.25
2549;BME280;1284;53.520;10.248;2023-11-21T11:53:35;101159.03;;;11.11;82.26
2549;BME280;1284;53.520;10.248;2023-11-21T11:56:22;101167.00;;;11.07;82.32
2549;BME280;1284;53.520;10.248;2023-11-21T11:58:52;101158.81;;;11.04;82.07
2549;BME280;1284;53.520;10.248;2023-11-21T12:01:19;101161.19;;;11.05;82.24
2549;BME280;1284;53.520;10.248;2023-11-21T12:03:45;101167.09;;;11.11;82.34
2549;BME280;1284;53.520;10.248;2023-11-21T12:06:34;101167.34;;;11.06;82.96
2549;BME280;1284;53.520;10.248;2023-11-21T12:09:02;101155.69;;;11.02;82.50
2549;BME280;1284;53.520;10.248;2023-11-21T12:11:31;101166.72;;;10.97;82.61
2549;BME280;1284;53.520;10.248;2023-11-21T12:13:58;101170.13;;;10.94;82.34
2549;BME280;1284;53.520;10.248;2023-11-21T12:16:25;101177.91;;;10.83;82.32
2549;BME280;1284;53.520;10.248;2023-11-21T12:18:53;101170.50;;;10.80;82.63
2549;BME280;1284;53.520;10.248;2023-11-21T12:21:20;101172.47;;;10.67;82.59
2549;BME280;1284;53.520;10.248;2023-11-21T12:23:46;101181.28;;;10.80;82.89
2549;BME280;1284;53.520;10.248;2023-11-21T12:26:13;101195.03;;;10.90;83.07
2549;BME280;1284;53.520;10.248;2023-11-21T12:28:39;101186.97;;;10.90;82.72
2549;BME280;1284;53.520;10.248;2023-11-21T12:31:05;101198.63;;;10.95;83.10
2549;BME280;1284;53.520;10.248;2023-11-21T12:33:35;101208.56;;;10.78;82.71
2549;BME280;1284;53.520;10.248;2023-11-21T12:36:00;101199.00;;;10.81;82.24
2549;BME280;1284;53.520;10.248;2023-11-21T12:38:34;101215.72;;;10.86;82.55
2549;BME280;1284;53.520;10.248;2023-11-21T12:41:00;101216.31;;;10.80;82.54
2549;BME280;1284;53.520;10.248;2023-11-21T12:43:25;101222.25;;;10.85;82.64
2549;BME280;1284;53.520;10.248;2023-11-21T12:46:04;101213.50;;;10.76;82.58
2549;BME280;1284;53.520;10.248;2023-11-21T12:48:36;101217.44;;;10.79;82.11
2549;BME280;1284;53.520;10.248;2023-11-21T12:51:02;101225.25;;;10.84;82.43
2549;BME280;1284;53.520;10.248;2023-11-21T12:53:28;101226.94;;;10.88;82.64
2549;BME280;1284;53.520;10.248;2023-11-21T12:56:02;101232.84;;;10.94;82.56
2549;BME280;1284;53.520;10.248;2023-11-21T12:58:28;101233.69;;;10.82;83.30
2549;BME280;1284;53.520;10.248;2023-11-21T13:00:57;101233.59;;;10.79;83.38
2549;BME280;1284;53.520;10.248;2023-11-21T13:03:25;101239.78;;;10.79;83.47
2549;BME280;1284;53.520;10.248;2023-11-21T13:05:52;101240.34;;;10.73;83.52
2549;BME280;1284;53.520;10.248;2023-11-21T13:08:23;101247.50;;;10.81;83.57
2549;BME280;1284;53.520;10.248;2023-11-21T13:10:54;101252.19;;;10.84;83.51
2549;BME280;1284;53.520;10.248;2023-11-21T13:13:20;101261.09;;;10.72;83.14